Time;durP1;ratioP1;P1;durP2;ratioP2;P2;SDS_P1;SDS_P2;PMS_P1;PMS_P2;Temp;Humidity;BMP_temperature;BMP_pressure;BME280_temperature;BME280_humidity;BME280_pressure;Samples;Min_cycle;Max_cycle;Signal;HPM_P1;HPM_P2
2023/08/17 00:01:51;;;;;;;6.00;1.35;;;;;;;;;;4993586;28;20042;-79
2023/08/17 00:04:17;;;;;;;5.05;1.48;;;;;;;;;;4995347;28;20097;-79
2023/08/17 00:06:43;;;;;;;6.47;1.10;;;;;;;;;;5010741;28;20046;-79
2023/08/17 00:09:10;;;;;;;5.88;1.10;;;;;;;;;;4994243;28;20042;-79
2023/08/17 00:11:36;;;;;;;4.03;1.13;;;;;;;;;;4994357;28;20050;-79
2023/08/17 00:14:02;;;;;;;4.32;1.05;;;;;;;;;;5010825;28;20434;-79
2023/08/17 00:16:28;;;;;;;4.50;1.27;;;;;;;;;;4993971;28;20504;-79
2023/08/17 00:18:54;;;;;;;3.00;1.08;;;;;;;;;;4977878;28;20046;-79
2023/08/17 00:21:20;;;;;;;5.50;1.17;;;;;;;;;;4977998;28;20049;-79
2023/08/17 00:23:46;;;;;;;4.85;1.27;;;;;;;;;;4978114;28;20190;-79
2023/08/17 00:26:14;;;;;;;8.40;1.25;;;;;;;;;;5010260;28;20046;-79
2023/08/17 00:28:40;;;;;;;7.45;1.20;;;;;;;;;;4977937;28;20103;-78
2023/08/17 00:31:06;;;;;;;4.35;1.10;;;;;;;;;;5010354;28;20053;-79
2023/08/17 00:33:32;;;;;;;1.83;1.10;;;;;;;;;;5009550;28;20129;-79
2023/08/17 00:35:58;;;;;;;4.25;1.08;;;;;;;;;;4978501;28;20108;-79
2023/08/17 00:38:24;;;;;;;5.70;0.98;;;;;;;;;;4994829;28;20042;-79
2023/08/17 00:40:50;;;;;;;5.70;1.42;;;;;;;;;;4977832;28;20471;-79
2023/08/17 00:43:17;;;;;;;5.03;1.05;;;;;;;;;;4993809;28;20133;-79
2023/08/17 00:45:44;;;;;;;4.22;1.23;;;;;;;;;;5009773;28;20049;-79
2023/08/17 00:48:11;;;;;;;5.05;1.00;;;;;;;;;;4986723;28;20496;-79
2023/08/17 00:50:37;;;;;;;3.85;1.38;;;;;;;;;;5016771;28;20057;-79
2023/08/17 00:53:04;;;;;;;4.63;1.38;;;;;;;;;;5033625;28;20547;-79
2023/08/17 00:55:30;;;;;;;4.20;0.98;;;;;;;;;;5033682;28;20098;-79
2023/08/17 00:57:57;;;;;;;5.07;1.00;;;;;;;;;;5032821;28;20045;-78
2023/08/17 01:00:28;;;;;;;5.85;1.15;;;;;;;;;;5000051;28;20045;-79
2023/08/17 01:02:54;;;;;;;4.75;0.82;;;;;;;;;;5032104;28;20054;-78
2023/08/17 01:05:20;;;;;;;3.85;0.80;;;;;;;;;;5032666;28;20041;-79
2023/08/17 01:07:47;;;;;;;5.20;0.88;;;;;;;;;;5032878;28;20468;-78
2023/08/17 01:10:13;;;;;;;5.50;1.10;;;;;;;;;;5016067;28;20071;-79
2023/08/17 01:12:42;;;;;;;6.05;1.02;;;;;;;;;;5032567;28;20057;-78
2023/08/17 01:15:10;;;;;;;7.55;1.00;;;;;;;;;;5032483;28;20090;-79
2023/08/17 01:17:53;;;;;;;5.60;1.40;;;;;;;;;;5032437;28;20081;-79
2023/08/17 01:20:20;;;;;;;5.03;0.90;;;;;;;;;;5032718;28;20038;-78
2023/08/17 01:22:49;;;;;;;4.15;1.00;;;;;;;;;;5032240;28;20041;-78
2023/08/17 01:25:15;;;;;;;5.13;1.10;;;;;;;;;;5033471;28;20053;-78
2023/08/17 01:27:44;;;;;;;2.15;0.95;;;;;;;;;;5032434;28;20049;-79
2023/08/17 01:30:11;;;;;;;2.83;1.00;;;;;;;;;;5016036;28;20362;-79
2023/08/17 01:32:40;;;;;;;4.85;0.90;;;;;;;;;;5031847;28;20081;-79
2023/08/17 01:35:14;;;;;;;5.88;0.90;;;;;;;;;;5033596;28;20045;-78
2023/08/17 01:37:41;;;;;;;3.25;0.68;;;;;;;;;;5032478;28;20469;-79
2023/08/17 01:40:07;;;;;;;4.57;0.80;;;;;;;;;;5032565;28;20045;-78
2023/08/17 01:42:34;;;;;;;3.55;0.60;;;;;;;;;;4998724;28;20042;-79
2023/08/17 01:45:00;;;;;;;3.20;0.90;;;;;;;;;;4999202;28;20469;-79
2023/08/17 01:47:26;;;;;;;3.45;1.10;;;;;;;;;;5015282;28;20124;-77
2023/08/17 01:49:52;;;;;;;4.45;0.90;;;;;;;;;;4999479;28;20045;-78
2023/08/17 01:52:19;;;;;;;3.30;0.82;;;;;;;;;;5032227;28;20049;-79
2023/08/17 01:54:45;;;;;;;3.63;0.60;;;;;;;;;;5033279;28;20045;-79
2023/08/17 01:57:11;;;;;;;2.35;0.60;;;;;;;;;;5055161;28;20052;-79
2023/08/17 01:59:37;;;;;;;5.13;1.20;;;;;;;;;;5077123;28;20124;-79
2023/08/17 02:02:03;;;;;;;4.78;0.85;;;;;;;;;;5058475;28;20040;-79
2023/08/17 02:04:29;;;;;;;2.95;0.50;;;;;;;;;;5059831;28;20047;-78
2023/08/17 02:06:55;;;;;;;6.07;1.10;;;;;;;;;;5059219;28;20097;-79
2023/08/17 02:09:21;;;;;;;2.42;0.70;;;;;;;;;;5076849;28;20465;-79
2023/08/17 02:11:47;;;;;;;2.85;0.90;;;;;;;;;;5059663;28;20045;-78
2023/08/17 02:14:13;;;;;;;4.03;0.82;;;;;;;;;;5059091;28;20048;-78
2023/08/17 02:16:39;;;;;;;6.07;1.08;;;;;;;;;;5076707;28;20498;-78
2023/08/17 02:19:05;;;;;;;3.30;0.77;;;;;;;;;;5076852;28;20097;-79
2023/08/17 02:21:31;;;;;;;1.90;0.50;;;;;;;;;;5059005;28;20067;-79
2023/08/17 02:23:57;;;;;;;2.53;0.70;;;;;;;;;;5058945;28;20040;-79
2023/08/17 02:26:23;;;;;;;2.53;0.70;;;;;;;;;;5059182;28;20040;-78
2023/08/17 02:28:49;;;;;;;2.47;0.82;;;;;;;;;;5059146;28;20154;-78
2023/08/17 02:31:15;;;;;;;5.10;0.88;;;;;;;;;;5058748;28;20063;-78
2023/08/17 02:33:42;;;;;;;2.00;0.75;;;;;;;;;;5058367;28;20480;-78
2023/08/17 02:36:08;;;;;;;2.25;0.60;;;;;;;;;;5058991;28;20047;-78
2023/08/17 02:38:34;;;;;;;5.63;0.90;;;;;;;;;;5076497;28;20472;-78
2023/08/17 02:41:00;;;;;;;2.90;0.88;;;;;;;;;;5024851;28;20094;-79
2023/08/17 02:43:26;;;;;;;2.20;0.60;;;;;;;;;;5030458;28;20044;-79
2023/08/17 02:45:52;;;;;;;5.40;0.73;;;;;;;;;;5022304;28;20051;-78
2023/08/17 02:48:19;;;;;;;3.75;0.70;;;;;;;;;;5027889;28;20046;-78
2023/08/17 02:50:45;;;;;;;3.92;0.70;;;;;;;;;;5015283;28;20144;-78
2023/08/17 02:53:11;;;;;;;2.55;0.80;;;;;;;;;;4999131;28;20041;-79
2023/08/17 02:55:37;;;;;;;3.60;0.80;;;;;;;;;;5015327;28;20135;-79
2023/08/17 02:58:03;;;;;;;6.25;0.70;;;;;;;;;;4999839;28;20038;-78
2023/08/17 03:00:29;;;;;;;4.03;0.90;;;;;;;;;;5016209;28;20042;-78
2023/08/17 03:02:55;;;;;;;4.38;0.88;;;;;;;;;;4998611;28;20478;-78
2023/08/17 03:05:21;;;;;;;2.70;0.85;;;;;;;;;;5014999;28;20046;-78
2023/08/17 03:07:48;;;;;;;4.95;0.90;;;;;;;;;;5003956;28;20120;-78
2023/08/17 03:10:14;;;;;;;5.13;0.93;;;;;;;;;;4995838;28;20085;-78
2023/08/17 03:12:40;;;;;;;2.40;0.70;;;;;;;;;;4995428;28;20496;-79
2023/08/17 03:15:07;;;;;;;4.80;0.93;;;;;;;;;;4995443;28;20050;-78
2023/08/17 03:17:33;;;;;;;6.22;0.98;;;;;;;;;;4995588;28;20034;-78
2023/08/17 03:20:00;;;;;;;6.00;0.88;;;;;;;;;;4995505;28;20053;-78
2023/08/17 03:22:26;;;;;;;2.75;0.90;;;;;;;;;;4994721;28;20052;-78
2023/08/17 03:24:52;;;;;;;4.15;0.77;;;;;;;;;;4978896;28;20046;-78
2023/08/17 03:27:18;;;;;;;4.55;0.70;;;;;;;;;;4995228;28;20089;-78
2023/08/17 03:29:44;;;;;;;1.75;0.65;;;;;;;;;;4978912;28;20046;-79
2023/08/17 03:32:10;;;;;;;3.25;0.88;;;;;;;;;;4994792;28;20425;-78
2023/08/17 03:34:36;;;;;;;3.55;0.90;;;;;;;;;;4995097;28;20069;-78
2023/08/17 03:37:02;;;;;;;5.45;0.95;;;;;;;;;;4994964;28;20046;-79
2023/08/17 03:39:28;;;;;;;4.30;0.90;;;;;;;;;;4962833;28;20481;-78
2023/08/17 03:41:54;;;;;;;4.78;0.80;;;;;;;;;;4994873;28;20038;-79
2023/08/17 03:44:20;;;;;;;2.05;0.80;;;;;;;;;;4994945;28;20100;-79
2023/08/17 03:46:46;;;;;;;4.53;0.70;;;;;;;;;;4978838;28;20064;-78
2023/08/17 03:49:13;;;;;;;2.05;0.88;;;;;;;;;;4979712;28;20047;-79
2023/08/17 03:51:39;;;;;;;4.13;0.93;;;;;;;;;;4993922;28;20430;-79
2023/08/17 03:54:05;;;;;;;3.63;0.80;;;;;;;;;;4999403;28;20049;-79
2023/08/17 03:56:31;;;;;;;3.42;1.08;;;;;;;;;;5014194;28;20042;-79
2023/08/17 03:58:57;;;;;;;3.28;1.15;;;;;;;;;;5014299;28;20084;-78
2023/08/17 04:01:23;;;;;;;4.78;1.75;;;;;;;;;;5014045;28;20037;-78
2023/08/17 04:03:50;;;;;;;5.15;1.77;;;;;;;;;;4997641;28;20092;-79
2023/08/17 04:06:16;;;;;;;4.15;1.20;;;;;;;;;;5013490;28;20416;-79
2023/08/17 04:08:42;;;;;;;5.47;1.52;;;;;;;;;;5014190;28;20128;-79
2023/08/17 04:11:08;;;;;;;3.80;1.38;;;;;;;;;;5014123;28;20089;-79
2023/08/17 04:13:34;;;;;;;5.13;1.60;;;;;;;;;;5013845;28;20038;-79
2023/08/17 04:16:00;;;;;;;4.10;1.77;;;;;;;;;;4997579;28;20053;-79
2023/08/17 04:18:26;;;;;;;9.02;1.83;;;;;;;;;;5013885;28;20129;-79
2023/08/17 04:20:52;;;;;;;6.25;2.28;;;;;;;;;;5012858;28;20034;-78
2023/08/17 04:23:19;;;;;;;4.75;1.60;;;;;;;;;;4997778;28;20050;-79
2023/08/17 04:25:45;;;;;;;4.97;2.13;;;;;;;;;;5013813;28;20470;-78
2023/08/17 04:28:11;;;;;;;5.75;2.10;;;;;;;;;;5013668;28;20053;-78
2023/08/17 04:30:38;;;;;;;4.40;1.88;;;;;;;;;;4996044;28;20180;-79
2023/08/17 04:33:04;;;;;;;6.72;2.03;;;;;;;;;;5012909;28;20057;-78
2023/08/17 04:35:30;;;;;;;6.03;1.92;;;;;;;;;;5014472;28;20130;-79
2023/08/17 04:37:56;;;;;;;5.03;2.00;;;;;;;;;;4991230;28;20049;-79
2023/08/17 04:40:22;;;;;;;2.92;1.35;;;;;;;;;;5013115;28;20069;-79
2023/08/17 04:42:49;;;;;;;8.02;2.20;;;;;;;;;;5013179;28;20120;-78
2023/08/17 04:45:15;;;;;;;4.07;1.70;;;;;;;;;;5013263;28;20068;-78
2023/08/17 04:47:41;;;;;;;4.88;2.17;;;;;;;;;;5013436;28;20050;-78
2023/08/17 04:50:07;;;;;;;6.00;1.65;;;;;;;;;;5003255;28;20388;-79
2023/08/17 04:52:33;;;;;;;3.95;1.75;;;;;;;;;;5003261;28;20068;-79
2023/08/17 04:54:59;;;;;;;7.88;1.73;;;;;;;;;;5036236;28;20045;-79
2023/08/17 04:57:27;;;;;;;8.35;2.08;;;;;;;;;;5036388;28;20041;-79
2023/08/17 04:59:53;;;;;;;6.15;1.95;;;;;;;;;;5036411;28;20099;-79
2023/08/17 05:02:19;;;;;;;5.28;1.77;;;;;;;;;;5035528;28;20090;-79
2023/08/17 05:04:46;;;;;;;5.60;1.73;;;;;;;;;;5035869;28;20053;-79
2023/08/17 05:07:12;;;;;;;4.35;1.40;;;;;;;;;;5022823;28;20059;-79
2023/08/17 05:09:38;;;;;;;6.25;1.55;;;;;;;;;;5035964;28;20045;-79
2023/08/17 05:12:05;;;;;;;4.75;1.95;;;;;;;;;;5035872;28;20396;-79
2023/08/17 05:14:31;;;;;;;5.22;1.20;;;;;;;;;;5035992;28;20076;-79
2023/08/17 05:16:57;;;;;;;4.70;1.45;;;;;;;;;;5037950;28;20043;-79
2023/08/17 05:19:23;;;;;;;2.78;0.88;;;;;;;;;;5035480;28;20495;-79
2023/08/17 05:21:51;;;;;;;5.43;1.48;;;;;;;;;;5019347;28;20049;-79
2023/08/17 05:24:17;;;;;;;6.22;1.25;;;;;;;;;;5035697;28;20044;-79
2023/08/17 05:26:44;;;;;;;5.88;1.30;;;;;;;;;;5035178;28;20385;-79
2023/08/17 05:29:10;;;;;;;7.05;1.85;;;;;;;;;;5035702;28;20037;-79
2023/08/17 05:31:37;;;;;;;4.75;1.42;;;;;;;;;;5033071;28;20429;-79
2023/08/17 05:34:03;;;;;;;4.88;1.35;;;;;;;;;;5036423;28;20033;-79
2023/08/17 05:36:29;;;;;;;6.68;1.50;;;;;;;;;;5039493;28;20094;-79
2023/08/17 05:38:55;;;;;;;3.70;1.13;;;;;;;;;;5039551;28;20082;-79
2023/08/17 05:41:22;;;;;;;3.38;1.50;;;;;;;;;;5022747;28;20512;-79
2023/08/17 05:43:49;;;;;;;5.43;1.33;;;;;;;;;;5039724;28;20476;-79
2023/08/17 05:46:15;;;;;;;4.25;1.30;;;;;;;;;;5057249;28;20504;-79
2023/08/17 05:48:41;;;;;;;3.70;1.02;;;;;;;;;;5039485;28;20077;-79
2023/08/17 05:51:07;;;;;;;8.93;1.10;;;;;;;;;;5023499;28;20052;-79
2023/08/17 05:53:33;;;;;;;6.20;1.08;;;;;;;;;;5023266;28;20043;-79
2023/08/17 05:55:59;;;;;;;4.03;1.00;;;;;;;;;;5039783;28;20048;-79
2023/08/17 05:58:25;;;;;;;5.78;1.02;;;;;;;;;;5039588;28;20507;-79
2023/08/17 06:00:51;;;;;;;3.20;0.88;;;;;;;;;;5039507;28;20037;-79
2023/08/17 06:03:17;;;;;;;5.38;1.05;;;;;;;;;;5038763;28;20057;-79
2023/08/17 06:05:44;;;;;;;4.88;1.35;;;;;;;;;;5037682;28;20556;-80
2023/08/17 06:08:10;;;;;;;5.18;1.02;;;;;;;;;;5042813;28;20090;-79
2023/08/17 06:10:36;;;;;;;6.32;1.15;;;;;;;;;;5059270;28;20087;-79
2023/08/17 06:13:02;;;;;;;4.97;1.10;;;;;;;;;;5059327;28;20472;-79
2023/08/17 06:15:28;;;;;;;6.25;1.08;;;;;;;;;;5059217;28;20040;-80
2023/08/17 06:17:54;;;;;;;2.95;0.88;;;;;;;;;;5059080;28;20076;-79
2023/08/17 06:20:20;;;;;;;4.65;0.95;;;;;;;;;;5026172;28;20053;-79
2023/08/17 06:22:48;;;;;;;6.03;1.30;;;;;;;;;;5058852;28;20388;-79
2023/08/17 06:25:14;;;;;;;4.75;0.70;;;;;;;;;;5059035;28;20047;-80
2023/08/17 06:27:42;;;;;;;2.78;0.85;;;;;;;;;;5076671;28;20080;-80
2023/08/17 06:30:08;;;;;;;6.68;1.13;;;;;;;;;;5042240;28;20044;-80
2023/08/17 06:32:34;;;;;;;3.50;0.90;;;;;;;;;;5058588;28;20040;-80
2023/08/17 06:35:00;;;;;;;4.60;0.95;;;;;;;;;;5036491;28;20045;-80
2023/08/17 06:37:26;;;;;;;4.05;0.85;;;;;;;;;;5056444;28;20049;-79
2023/08/17 06:39:52;;;;;;;3.15;0.80;;;;;;;;;;5022016;28;20471;-80
2023/08/17 06:42:18;;;;;;;2.92;0.73;;;;;;;;;;5021760;28;20128;-79
2023/08/17 06:44:44;;;;;;;2.88;0.60;;;;;;;;;;5030471;28;20046;-80
2023/08/17 06:47:11;;;;;;;2.85;0.80;;;;;;;;;;5022047;28;20536;-80
2023/08/17 06:49:37;;;;;;;4.50;0.70;;;;;;;;;;5022112;28;20045;-80
2023/08/17 06:52:03;;;;;;;2.97;0.60;;;;;;;;;;5034148;28;20091;-79
2023/08/17 06:54:29;;;;;;;7.53;1.27;;;;;;;;;;5036247;28;20045;-80
2023/08/17 06:56:56;;;;;;;3.33;0.77;;;;;;;;;;5036931;28;20119;-80
2023/08/17 06:59:22;;;;;;;1.33;0.88;;;;;;;;;;5021555;28;20056;-80
2023/08/17 07:01:48;;;;;;;3.50;0.82;;;;;;;;;;5038211;28;20556;-79
2023/08/17 07:04:14;;;;;;;4.78;1.00;;;;;;;;;;5038132;28;20033;-80
2023/08/17 07:06:41;;;;;;;2.95;0.80;;;;;;;;;;5038732;28;20041;-80
2023/08/17 07:09:07;;;;;;;3.50;0.70;;;;;;;;;;5038608;28;20075;-80
2023/08/17 07:11:33;;;;;;;5.82;0.95;;;;;;;;;;5032732;28;20128;-80
2023/08/17 07:13:59;;;;;;;2.58;0.52;;;;;;;;;;5018286;28;20056;-80
2023/08/17 07:16:25;;;;;;;3.88;0.60;;;;;;;;;;5018673;28;20045;-80
2023/08/17 07:18:51;;;;;;;2.30;0.52;;;;;;;;;;5002143;28;20049;-80
2023/08/17 07:21:17;;;;;;;4.30;0.47;;;;;;;;;;5018151;28;20044;-79
2023/08/17 07:23:44;;;;;;;4.65;1.10;;;;;;;;;;5002044;28;20041;-80
2023/08/17 07:26:11;;;;;;;4.20;0.50;;;;;;;;;;5018175;28;20089;-80
2023/08/17 07:28:37;;;;;;;4.18;0.60;;;;;;;;;;5017994;28;20056;-80
2023/08/17 07:31:03;;;;;;;5.40;0.93;;;;;;;;;;5018195;28;20389;-80
2023/08/17 07:33:29;;;;;;;4.15;0.60;;;;;;;;;;5017861;28;20377;-80
2023/08/17 07:35:58;;;;;;;3.95;0.52;;;;;;;;;;5018067;28;20045;-79
2023/08/17 07:38:24;;;;;;;3.78;0.65;;;;;;;;;;5018006;28;20041;-80
2023/08/17 07:40:50;;;;;;;3.88;0.70;;;;;;;;;;5017916;28;20154;-79
2023/08/17 07:43:16;;;;;;;3.30;0.60;;;;;;;;;;5017779;28;20374;-79
2023/08/17 07:45:42;;;;;;;2.60;0.50;;;;;;;;;;5018429;28;20077;-79
2023/08/17 07:48:08;;;;;;;3.00;0.60;;;;;;;;;;5018094;28;20046;-79
2023/08/17 07:50:34;;;;;;;3.17;0.50;;;;;;;;;;5017905;28;20051;-79
2023/08/17 07:53:00;;;;;;;4.80;0.57;;;;;;;;;;5017736;28;20045;-79
2023/08/17 07:55:27;;;;;;;1.83;0.60;;;;;;;;;;5034510;28;20094;-79
2023/08/17 07:57:53;;;;;;;4.30;0.50;;;;;;;;;;4984994;28;20048;-79
2023/08/17 08:00:19;;;;;;;2.53;0.40;;;;;;;;;;5017661;28;20049;-79
2023/08/17 08:02:46;;;;;;;3.92;0.40;;;;;;;;;;5034495;28;20049;-80
2023/08/17 08:05:14;;;;;;;2.40;0.50;;;;;;;;;;5017556;28;20045;-79
2023/08/17 08:07:40;;;;;;;1.83;0.40;;;;;;;;;;5017384;28;20068;-80
2023/08/17 08:10:07;;;;;;;3.50;0.57;;;;;;;;;;5017345;28;20053;-79
2023/08/17 08:12:33;;;;;;;4.38;0.90;;;;;;;;;;5000600;28;20047;-80
2023/08/17 08:14:59;;;;;;;2.92;0.60;;;;;;;;;;5017321;28;20504;-80
2023/08/17 08:17:26;;;;;;;1.92;0.43;;;;;;;;;;5000796;28;20056;-79
2023/08/17 08:19:53;;;;;;;3.40;0.60;;;;;;;;;;5017131;28;20045;-79
2023/08/17 08:22:19;;;;;;;3.63;0.47;;;;;;;;;;5034510;28;20385;-79
2023/08/17 08:24:45;;;;;;;4.03;0.70;;;;;;;;;;5000385;28;20049;-80
2023/08/17 08:27:11;;;;;;;2.65;0.60;;;;;;;;;;5016836;28;20497;-79
2023/08/17 08:29:39;;;;;;;3.90;0.60;;;;;;;;;;5017050;28;20041;-79
2023/08/17 08:32:05;;;;;;;4.85;0.65;;;;;;;;;;5017080;28;20494;-80
2023/08/17 08:34:31;;;;;;;5.97;0.80;;;;;;;;;;5030012;28;20037;-79
2023/08/17 08:36:57;;;;;;;2.33;0.60;;;;;;;;;;5036332;28;20048;-80
2023/08/17 08:39:26;;;;;;;3.58;0.70;;;;;;;;;;5003370;28;20053;-80
2023/08/17 08:41:54;;;;;;;2.25;0.50;;;;;;;;;;5036167;28;20067;-79
2023/08/17 08:44:20;;;;;;;4.18;0.50;;;;;;;;;;5036547;28;20048;-79
2023/08/17 08:46:46;;;;;;;5.25;0.60;;;;;;;;;;5036533;28;20114;-80
2023/08/17 08:49:15;;;;;;;1.77;0.43;;;;;;;;;;5036065;28;20040;-79
2023/08/17 08:51:45;;;;;;;2.45;0.40;;;;;;;;;;5036456;28;20076;-79
2023/08/17 08:54:13;;;;;;;7.95;0.60;;;;;;;;;;5035819;28;20361;-80
2023/08/17 08:56:40;;;;;;;4.93;0.40;;;;;;;;;;5036326;28;20064;-80
2023/08/17 08:59:06;;;;;;;2.38;0.50;;;;;;;;;;5019929;28;20044;-80
2023/08/17 09:01:33;;;;;;;5.20;0.60;;;;;;;;;;5019920;28;20045;-80
2023/08/17 09:04:02;;;;;;;3.85;0.82;;;;;;;;;;5035661;28;20057;-79
2023/08/17 09:06:30;;;;;;;1.98;0.47;;;;;;;;;;5035862;28;20068;-80
2023/08/17 09:08:58;;;;;;;3.67;0.70;;;;;;;;;;5035920;28;20044;-80
2023/08/17 09:11:24;;;;;;;5.75;0.40;;;;;;;;;;5036816;28;20380;-80
2023/08/17 09:13:50;;;;;;;1.85;0.40;;;;;;;;;;5036037;28;20488;-79
2023/08/17 09:16:16;;;;;;;2.10;0.30;;;;;;;;;;5036336;28;20167;-80
2023/08/17 09:18:42;;;;;;;3.47;0.40;;;;;;;;;;5036213;28;20127;-80
2023/08/17 09:21:08;;;;;;;1.70;0.40;;;;;;;;;;5035960;28;20384;-81
2023/08/17 09:23:35;;;;;;;3.85;0.60;;;;;;;;;;5035802;28;20041;-81
2023/08/17 09:26:06;;;;;;;2.30;0.50;;;;;;;;;;5019424;28;20531;-80
2023/08/17 09:28:32;;;;;;;2.03;0.60;;;;;;;;;;5036417;28;20072;-80
2023/08/17 09:31:05;;;;;;;3.70;0.80;;;;;;;;;;5035663;28;20048;-80
2023/08/17 09:33:31;;;;;;;2.70;0.60;;;;;;;;;;5019335;28;20499;-80
2023/08/17 09:35:58;;;;;;;4.75;0.60;;;;;;;;;;5035530;28;20488;-80
2023/08/17 09:38:24;;;;;;;3.92;0.60;;;;;;;;;;5035662;28;20044;-79
2023/08/17 09:40:51;;;;;;;2.88;0.55;;;;;;;;;;5035943;28;20095;-79
2023/08/17 09:43:18;;;;;;;2.42;0.60;;;;;;;;;;5035920;28;20045;-80
2023/08/17 09:45:49;;;;;;;4.88;0.47;;;;;;;;;;5035752;28;20101;-80
2023/08/17 09:48:20;;;;;;;3.33;0.60;;;;;;;;;;5035452;28;20064;-80
2023/08/17 09:50:47;;;;;;;2.70;0.70;;;;;;;;;;5019075;28;20045;-79
2023/08/17 09:53:14;;;;;;;2.95;0.50;;;;;;;;;;5019279;28;20033;-80
2023/08/17 09:55:41;;;;;;;2.80;0.60;;;;;;;;;;5035568;28;20390;-80
2023/08/17 09:58:08;;;;;;;3.60;0.82;;;;;;;;;;5035652;28;20037;-80
2023/08/17 10:00:35;;;;;;;3.80;0.60;;;;;;;;;;5035189;28;20495;-80
2023/08/17 10:03:03;;;;;;;1.40;0.57;;;;;;;;;;5034849;28;20080;-80
2023/08/17 10:05:30;;;;;;;5.20;0.85;;;;;;;;;;5035661;28;20037;-80
2023/08/17 10:07:58;;;;;;;2.42;0.50;;;;;;;;;;5053192;28;20041;-80
2023/08/17 10:10:27;;;;;;;3.30;0.50;;;;;;;;;;5035717;28;20045;-80
2023/08/17 10:13:10;;;;;;;2.85;1.02;;;;;;;;;;5035221;28;20522;-79
2023/08/17 10:15:55;;;;;;;2.95;0.85;;;;;;;;;;5035257;28;20045;-80
2023/08/17 10:18:30;;;;;;;2.65;0.73;;;;;;;;;;5036106;28;20048;-79
2023/08/17 10:21:01;;;;;;;3.42;0.50;;;;;;;;;;5039072;28;20055;-80
2023/08/17 10:23:28;;;;;;;2.42;0.60;;;;;;;;;;5022686;28;20114;-80
2023/08/17 10:25:54;;;;;;;3.08;0.90;;;;;;;;;;5038969;28;20045;-80
2023/08/17 10:28:22;;;;;;;2.83;1.00;;;;;;;;;;5022649;28;20045;-81
2023/08/17 10:30:48;;;;;;;3.95;0.88;;;;;;;;;;5022510;28;20044;-80
2023/08/17 10:33:15;;;;;;;2.63;0.80;;;;;;;;;;5038556;28;20037;-80
2023/08/17 10:35:41;;;;;;;2.85;0.77;;;;;;;;;;5039023;28;20040;-80
2023/08/17 10:38:08;;;;;;;3.47;0.63;;;;;;;;;;5022477;28;20071;-80
2023/08/17 10:40:38;;;;;;;1.27;0.65;;;;;;;;;;5056242;28;20102;-80
2023/08/17 10:43:04;;;;;;;2.40;0.60;;;;;;;;;;5038568;28;20579;-80
2023/08/17 10:45:38;;;;;;;1.88;0.85;;;;;;;;;;5022446;28;20045;-80
2023/08/17 10:48:10;;;;;;;3.83;0.70;;;;;;;;;;5038519;28;20096;-80
2023/08/17 10:50:37;;;;;;;1.70;0.70;;;;;;;;;;5038497;28;20048;-80
2023/08/17 10:53:04;;;;;;;2.60;0.82;;;;;;;;;;5038302;28;20080;-80
2023/08/17 10:55:38;;;;;;;3.25;0.70;;;;;;;;;;5038565;28;20049;-80
2023/08/17 10:58:04;;;;;;;2.15;0.90;;;;;;;;;;5055837;28;20468;-80
2023/08/17 11:00:37;;;;;;;4.80;0.80;;;;;;;;;;5036199;28;20044;-79
2023/08/17 11:03:09;;;;;;;1.40;0.70;;;;;;;;;;5036831;28;20052;-80
2023/08/17 11:05:38;;;;;;;2.38;0.80;;;;;;;;;;5035620;28;20044;-79
2023/08/17 11:08:05;;;;;;;4.05;0.90;;;;;;;;;;5037631;28;20303;-81
2023/08/17 11:10:33;;;;;;;2.65;1.55;;;;;;;;;;5056902;28;20473;-79
2023/08/17 11:12:59;;;;;;;3.47;1.25;;;;;;;;;;5041547;28;20119;-79
2023/08/17 11:15:26;;;;;;;3.33;1.15;;;;;;;;;;5058202;28;20044;-79
2023/08/17 11:17:53;;;;;;;4.10;1.20;;;;;;;;;;5041453;28;20055;-79
2023/08/17 11:20:19;;;;;;;3.30;1.30;;;;;;;;;;5058064;28;20052;-79
2023/08/17 11:22:47;;;;;;;1.70;1.13;;;;;;;;;;5039604;28;20126;-78
2023/08/17 11:25:13;;;;;;;3.55;1.23;;;;;;;;;;5038600;28;20045;-79
2023/08/17 11:27:40;;;;;;;2.58;1.25;;;;;;;;;;5037969;28;20070;-79
2023/08/17 11:30:06;;;;;;;4.15;1.52;;;;;;;;;;5036741;28;20131;-79
2023/08/17 11:32:32;;;;;;;3.00;1.35;;;;;;;;;;5037352;28;20048;-79
2023/08/17 11:34:58;;;;;;;1.98;1.40;;;;;;;;;;5037953;28;20099;-79
2023/08/17 11:37:24;;;;;;;3.42;1.60;;;;;;;;;;5021200;28;20049;-79
2023/08/17 11:39:50;;;;;;;9.63;3.10;;;;;;;;;;5030192;28;20469;-79
2023/08/17 11:42:16;;;;;;;2.53;1.30;;;;;;;;;;5017660;28;20190;-79
2023/08/17 11:44:42;;;;;;;5.30;2.50;;;;;;;;;;5037242;28;20037;-79
2023/08/17 11:47:08;;;;;;;3.50;1.70;;;;;;;;;;5041544;28;20083;-80
2023/08/17 11:49:35;;;;;;;3.53;2.08;;;;;;;;;;5019590;28;20366;-79
2023/08/17 11:52:01;;;;;;;2.47;2.10;;;;;;;;;;5017482;28;20037;-80
2023/08/17 11:54:27;;;;;;;3.10;2.25;;;;;;;;;;5044751;28;20080;-79
2023/08/17 11:56:53;;;;;;;4.32;1.92;;;;;;;;;;5037093;28;20106;-80
2023/08/17 11:59:20;;;;;;;3.03;2.05;;;;;;;;;;5039876;28;20045;-80
2023/08/17 12:01:46;;;;;;;5.32;2.15;;;;;;;;;;5036732;28;20048;-80
2023/08/17 12:04:12;;;;;;;2.53;1.95;;;;;;;;;;5020271;28;20060;-79
2023/08/17 12:06:45;;;;;;;3.33;3.03;;;;;;;;;;5036933;28;20045;-79
2023/08/17 12:09:13;;;;;;;4.20;2.03;;;;;;;;;;5036773;28;20045;-80
2023/08/17 12:11:39;;;;;;;2.63;2.20;;;;;;;;;;5035464;28;20057;-80
2023/08/17 12:14:12;;;;;;;3.03;1.85;;;;;;;;;;5036394;28;20436;-80
2023/08/17 12:16:48;;;;;;;4.40;2.13;;;;;;;;;;5037634;28;20048;-80
2023/08/17 12:19:15;;;;;;;3.67;2.03;;;;;;;;;;5028209;28;20044;-80
2023/08/17 12:21:42;;;;;;;4.20;2.22;;;;;;;;;;5074114;28;20039;-81
2023/08/17 12:24:14;;;;;;;2.38;2.17;;;;;;;;;;5056781;28;20048;-80
2023/08/17 12:26:44;;;;;;;4.45;2.08;;;;;;;;;;5036874;28;20103;-80
2023/08/17 12:29:10;;;;;;;2.33;1.98;;;;;;;;;;5036683;28;20128;-80
2023/08/17 12:31:36;;;;;;;4.15;2.42;;;;;;;;;;5036639;28;20090;-80
2023/08/17 12:34:03;;;;;;;2.70;2.47;;;;;;;;;;5019905;28;20098;-80
2023/08/17 12:36:29;;;;;;;3.15;2.20;;;;;;;;;;5042676;28;20052;-81
2023/08/17 12:38:55;;;;;;;2.05;1.95;;;;;;;;;;5011195;28;20274;-80
2023/08/17 12:41:21;;;;;;;4.40;2.38;;;;;;;;;;5035816;28;20051;-80
2023/08/17 12:43:47;;;;;;;3.00;2.65;;;;;;;;;;5018878;28;20080;-80
2023/08/17 12:46:13;;;;;;;2.30;2.10;;;;;;;;;;5020162;28;20124;-80
2023/08/17 12:48:40;;;;;;;2.80;1.95;;;;;;;;;;5036181;28;20477;-80
2023/08/17 12:51:06;;;;;;;3.47;2.80;;;;;;;;;;5034780;28;20060;-79
2023/08/17 12:53:32;;;;;;;2.40;1.83;;;;;;;;;;5016557;28;20042;-79
2023/08/17 12:55:58;;;;;;;2.60;2.40;;;;;;;;;;5016469;28;20084;-80
2023/08/17 12:58:24;;;;;;;2.67;1.98;;;;;;;;;;5016637;28;20458;-80
2023/08/17 13:00:51;;;;;;;2.60;1.77;;;;;;;;;;5016940;28;20042;-80
2023/08/17 13:03:20;;;;;;;1.80;1.65;;;;;;;;;;4999718;28;20048;-80
2023/08/17 13:05:46;;;;;;;2.80;2.03;;;;;;;;;;5016160;28;20072;-79
2023/08/17 13:08:12;;;;;;;2.58;1.55;;;;;;;;;;5016446;28;20172;-80
2023/08/17 13:10:38;;;;;;;2.33;2.05;;;;;;;;;;5015887;28;20049;-80
2023/08/17 13:13:04;;;;;;;3.30;2.33;;;;;;;;;;4998869;28;20056;-81
2023/08/17 13:15:32;;;;;;;2.63;1.80;;;;;;;;;;5015852;28;20041;-80
2023/08/17 13:17:59;;;;;;;2.88;2.17;;;;;;;;;;5016300;28;20044;-80
2023/08/17 13:20:25;;;;;;;2.88;2.33;;;;;;;;;;5027196;28;20036;-82
2023/08/17 13:22:51;;;;;;;2.88;2.58;;;;;;;;;;5018483;28;20032;-82
2023/08/17 13:25:17;;;;;;;3.13;2.92;;;;;;;;;;5001095;28;20469;-82
2023/08/17 13:27:43;;;;;;;3.05;2.47;;;;;;;;;;5018866;28;20049;-81
2023/08/17 13:30:10;;;;;;;2.30;2.10;;;;;;;;;;5015723;28;20381;-81
2023/08/17 13:32:36;;;;;;;3.53;3.08;;;;;;;;;;5009628;28;20056;-82
2023/08/17 13:35:03;;;;;;;3.05;2.75;;;;;;;;;;5036014;28;20084;-82
2023/08/17 13:37:29;;;;;;;2.47;2.20;;;;;;;;;;5019293;28;20041;-82
2023/08/17 13:39:55;;;;;;;3.08;2.75;;;;;;;;;;5035634;28;20357;-79
2023/08/17 13:42:21;;;;;;;2.88;2.47;;;;;;;;;;5035824;28;20045;-80
2023/08/17 13:44:47;;;;;;;2.55;2.30;;;;;;;;;;5019397;28;20048;-79
2023/08/17 13:47:13;;;;;;;3.30;3.00;;;;;;;;;;5003230;28;20048;-80
2023/08/17 13:49:39;;;;;;;3.17;2.40;;;;;;;;;;5003412;28;20042;-80
2023/08/17 13:52:05;;;;;;;4.53;2.97;;;;;;;;;;4996294;28;20067;-80
2023/08/17 13:54:31;;;;;;;3.35;3.05;;;;;;;;;;4998954;28;20050;-80
2023/08/17 13:56:58;;;;;;;4.20;3.40;;;;;;;;;;5016687;28;20175;-80
2023/08/17 13:59:24;;;;;;;4.85;3.22;;;;;;;;;;5016672;28;20041;-79
2023/08/17 14:01:50;;;;;;;5.15;3.20;;;;;;;;;;5016264;28;20052;-79
2023/08/17 14:04:17;;;;;;;2.33;2.22;;;;;;;;;;5015993;28;20474;-79
2023/08/17 14:06:43;;;;;;;3.70;3.13;;;;;;;;;;5016418;28;20493;-80
2023/08/17 14:09:10;;;;;;;3.80;3.20;;;;;;;;;;5015845;28;20389;-79
2023/08/17 14:11:36;;;;;;;4.45;2.90;;;;;;;;;;5016009;28;20398;-79
2023/08/17 14:14:02;;;;;;;2.65;2.45;;;;;;;;;;4999972;28;20046;-79
2023/08/17 14:16:28;;;;;;;2.53;2.28;;;;;;;;;;5000098;28;20049;-79
2023/08/17 14:18:54;;;;;;;2.47;2.00;;;;;;;;;;5016025;28;20046;-80
2023/08/17 14:21:20;;;;;;;2.67;2.28;;;;;;;;;;5015970;28;20042;-80
2023/08/17 14:23:46;;;;;;;3.25;2.08;;;;;;;;;;5015976;28;20050;-80
2023/08/17 14:26:13;;;;;;;4.28;2.08;;;;;;;;;;5016303;28;20057;-79
2023/08/17 14:28:39;;;;;;;2.40;2.20;;;;;;;;;;5017013;28;20052;-79
2023/08/17 14:31:05;;;;;;;2.45;1.95;;;;;;;;;;5015881;28;20038;-79
2023/08/17 14:33:31;;;;;;;4.13;2.63;;;;;;;;;;5015343;28;20105;-79
2023/08/17 14:35:57;;;;;;;2.60;2.40;;;;;;;;;;5015724;28;20465;-80
2023/08/17 14:38:23;;;;;;;2.53;2.20;;;;;;;;;;5015827;28;20042;-79
2023/08/17 14:40:49;;;;;;;3.55;2.55;;;;;;;;;;5015817;28;20044;-79